EGNX/EMA METAR and TAF weather

Enter ICAO airport designator
Station Type Date Time Source
EGNX METAR 2021/07/29 03:20 UTC NOAA

EGNX 290320Z 23011KT 9999 FEW023 12/09 Q1005


Station Type Date Time Source
EGNX Decoded METAR 2021/07/29 03:20 UTC NOAA

East Midlands, United Kingdom (EGNX) 52-50N 001-20W
Jul 28, 2021 - 11:20 PM EDT / 2021.07.29 0320 UTC
Wind: from the SW (230 degrees) at 13 MPH (11 KT):0
Visibility: greater than 7 mile(s):0
Sky conditions: mostly clear
Temperature: 53 F (12 C)
Dew Point: 48 F (9 C)
Relative Humidity: 81%
Pressure (altimeter): 29.68 in. Hg (1005 hPa)
ob: EGNX 290320Z 23011KT 9999 FEW023 12/09 Q1005
cycle: 3

Station Type Date Time Source
EGNX TAF 2021/07/28 18:09 UTC NOAA

TAF TAF EGNX 281704Z 2818/2918 24011KT 9999 SCT030 PROB40
TEMPO 2818/2821 7000 SHRA
TEMPO 2910/2916 27018G28KT

Example: see airport list